Time;durP1;ratioP1;P1;durP2;ratioP2;P2;SDS_P1;SDS_P2;PMS_P1;PMS_P2;Temp;Humidity;BMP_temperature;BMP_pressure;BME280_temperature;BME280_humidity;BME280_pressure;Samples;Min_cycle;Max_cycle;Signal;HPM_P1;HPM_P2
2023/11/20 00:02:15;;;;;;;9.73;7.40;;;;;;;-4.27;100.00;101662.22;5033211;28;20488;-65
2023/11/20 00:04:41;;;;;;;8.33;6.40;;;;;;;-4.03;100.00;101686.63;5033327;28;20037;-67
2023/11/20 00:07:07;;;;;;;9.93;6.67;;;;;;;-3.99;100.00;101690.00;5033227;28;20045;-67
2023/11/20 00:09:32;;;;;;;8.77;7.03;;;;;;;-4.04;100.00;101691.88;5032870;28;20041;-64
2023/11/20 00:11:58;;;;;;;11.33;8.43;;;;;;;-4.11;100.00;101686.00;5032894;28;20451;-65
2023/11/20 00:14:24;;;;;;;12.40;9.00;;;;;;;-4.10;100.00;101685.09;5033429;28;20057;-66
2023/11/20 00:16:49;;;;;;;10.57;6.97;;;;;;;-4.28;100.00;101670.91;5033931;28;20041;-65
2023/11/20 00:19:17;;;;;;;14.30;6.90;;;;;;;-4.60;100.00;101613.81;5033981;28;20455;-67
2023/11/20 00:21:42;;;;;;;8.60;6.85;;;;;;;-4.32;100.00;101673.66;5032322;28;20045;-66
2023/11/20 00:24:09;;;;;;;12.52;7.53;;;;;;;-4.30;100.00;101684.88;5033202;28;20072;-66
2023/11/20 00:26:36;;;;;;;10.52;7.90;;;;;;;-4.25;100.00;101688.16;5031574;28;20057;-66
2023/11/20 00:29:04;;;;;;;10.52;7.97;;;;;;;-4.43;100.00;101660.94;5032582;28;20517;-64
2023/11/20 00:31:31;;;;;;;10.63;7.38;;;;;;;-4.23;100.00;101689.81;5032550;28;20057;-65
2023/11/20 00:33:56;;;;;;;12.73;7.07;;;;;;;-4.18;100.00;101698.34;5031166;28;20453;-65
2023/11/20 00:36:22;;;;;;;9.97;8.47;;;;;;;-4.16;100.00;101687.88;5032302;28;20042;-66
2023/11/20 00:38:51;;;;;;;9.13;6.90;;;;;;;-4.15;100.00;101693.03;5031688;28;20087;-66
2023/11/20 00:41:17;;;;;;;17.00;7.95;;;;;;;-4.42;100.00;101658.31;5031240;28;20029;-67
2023/11/20 00:43:42;;;;;;;11.38;7.32;;;;;;;-4.39;100.00;101678.16;5032498;28;20416;-66
2023/11/20 00:46:08;;;;;;;10.57;7.07;;;;;;;-4.48;100.00;101675.84;5032590;28;20030;-65
2023/11/20 00:48:34;;;;;;;9.67;7.20;;;;;;;-4.83;100.00;101622.28;5032522;28;20167;-65
2023/11/20 00:51:00;;;;;;;11.33;7.23;;;;;;;-4.46;100.00;101687.91;5032639;28;20029;-66
2023/11/20 00:53:25;;;;;;;12.10;7.53;;;;;;;-4.60;100.00;101676.22;5031338;28;20040;-67
2023/11/20 00:55:51;;;;;;;8.67;6.83;;;;;;;-4.65;100.00;101675.47;5031453;28;20040;-66
2023/11/20 00:58:17;;;;;;;9.90;7.20;;;;;;;-4.65;100.00;101681.50;5032015;28;20088;-65
2023/11/20 01:00:43;;;;;;;11.25;8.57;;;;;;;-4.59;100.00;101693.50;5031968;28;20045;-67
2023/11/20 01:03:08;;;;;;;10.47;7.40;;;;;;;-4.63;100.00;101692.72;5031917;28;20045;-64
2023/11/20 01:05:34;;;;;;;14.10;7.80;;;;;;;-5.17;100.00;101617.19;5030700;28;20044;-66
2023/11/20 01:07:59;;;;;;;10.30;6.70;;;;;;;-4.77;100.00;101693.13;5031817;28;20033;-66
2023/11/20 01:10:25;;;;;;;9.50;7.30;;;;;;;-4.75;100.00;101699.13;5031996;28;20044;-66
2023/11/20 01:12:51;;;;;;;12.63;7.77;;;;;;;-4.78;100.00;101701.81;5031980;28;20094;-64
2023/11/20 01:15:16;;;;;;;10.87;7.23;;;;;;;-4.80;100.00;101698.41;5032110;28;20125;-65
2023/11/20 01:17:42;;;;;;;10.33;7.27;;;;;;;-4.96;100.00;101673.72;5031954;28;20272;-65
2023/11/20 01:20:11;;;;;;;11.03;7.63;;;;;;;-4.86;100.00;101701.16;5031827;28;20516;-66
2023/11/20 01:22:36;;;;;;;9.15;7.03;;;;;;;-5.22;100.00;101632.00;5032679;28;20505;-66
2023/11/20 01:25:03;;;;;;;10.57;7.27;;;;;;;-4.75;100.00;101693.91;5033056;28;20033;-65
2023/11/20 01:27:31;;;;;;;9.10;6.88;;;;;;;-4.59;100.00;101693.50;5032602;28;20055;-64
2023/11/20 01:29:56;;;;;;;12.93;7.60;;;;;;;-4.69;100.00;101674.69;5032605;28;20100;-66
2023/11/20 01:32:22;;;;;;;11.23;7.63;;;;;;;-5.59;100.00;101534.34;5033086;28;20128;-66
2023/11/20 01:34:48;;;;;;;9.77;6.87;;;;;;;-4.51;100.00;101710.56;5033695;28;20037;-65
2023/11/20 01:37:13;;;;;;;11.33;7.20;;;;;;;-4.39;100.00;101704.16;5033710;28;20404;-66
2023/11/20 01:39:39;;;;;;;9.63;7.00;;;;;;;-4.34;100.00;101707.47;5032574;28;20079;-64
2023/11/20 01:42:05;;;;;;;9.43;6.57;;;;;;;-4.31;100.00;101702.22;5033283;28;20044;-66
2023/11/20 01:44:31;;;;;;;10.52;7.22;;;;;;;-4.26;100.00;101705.53;5031875;28;20052;-65
2023/11/20 01:46:59;;;;;;;12.40;7.50;;;;;;;-4.21;100.00;101708.00;5031819;28;20037;-65
2023/11/20 01:49:25;;;;;;;12.32;8.35;;;;;;;-4.28;100.00;101685.66;5030697;28;20557;-66
2023/11/20 01:51:51;;;;;;;13.67;8.70;;;;;;;-4.15;100.00;101693.03;5030931;28;20148;-66
2023/11/20 01:54:17;;;;;;;19.33;13.27;;;;;;;-4.08;100.00;101693.69;5031473;28;20041;-68
2023/11/20 01:56:43;;;;;;;14.45;9.75;;;;;;;-4.03;100.00;101690.97;5030994;28;20042;-64
2023/11/20 01:59:11;;;;;;;36.13;18.88;;;;;;;-3.91;100.00;101701.00;5031376;28;20052;-66
2023/11/20 02:01:36;;;;;;;38.50;19.67;;;;;;;-3.86;100.00;101712.13;5031001;28;20044;-65
2023/11/20 02:04:03;;;;;;;32.83;19.07;;;;;;;-3.93;100.00;101682.84;5029729;28;20041;-67
2023/11/20 02:06:30;;;;;;;30.10;17.10;;;;;;;-3.90;100.00;101708.75;5030932;28;20041;-66
2023/11/20 02:08:56;;;;;;;35.78;18.88;;;;;;;-4.42;100.00;101628.84;5030961;28;20045;-66
2023/11/20 02:11:23;;;;;;;30.55;15.98;;;;;;;-4.11;100.00;101702.44;5031202;28;20042;-66
2023/11/20 02:13:53;;;;;;;29.10;14.85;;;;;;;-4.15;100.00;101687.00;5031073;28;20041;-67
2023/11/20 02:16:19;;;;;;;20.02;11.82;;;;;;;-4.02;100.00;101698.75;5029531;28;20524;-67
2023/11/20 02:18:45;;;;;;;13.67;8.27;;;;;;;-4.37;100.00;101639.97;5030963;28;20042;-67
2023/11/20 02:21:10;;;;;;;14.53;9.77;;;;;;;-4.23;100.00;101684.63;5030683;28;20045;-65
2023/11/20 02:23:36;;;;;;;17.73;10.20;;;;;;;-4.37;100.00;101668.56;5030960;28;20456;-67
2023/11/20 02:26:24;;;;;;;13.43;8.27;;;;;;;-4.21;100.00;101698.44;5030928;28;20040;-66
2023/11/20 02:29:04;;;;;;;10.52;6.82;;;;;;;-4.27;100.00;101700.38;5030868;28;20045;-67
2023/11/20 02:31:33;;;;;;;11.02;7.72;;;;;;;-4.40;100.00;101690.31;5031162;28;20033;-65
2023/11/20 02:34:02;;;;;;;11.32;7.38;;;;;;;-4.84;100.00;101623.19;5030946;28;20087;-65
2023/11/20 02:36:28;;;;;;;10.50;7.00;;;;;;;-4.53;100.00;101699.38;5030838;28;20048;-65
2023/11/20 02:38:54;;;;;;;9.50;7.37;;;;;;;-4.67;100.00;101681.56;5029572;28;20034;-65
2023/11/20 02:41:20;;;;;;;10.57;6.93;;;;;;;-4.72;100.00;101680.84;5030745;28;20076;-65
2023/11/20 02:43:46;;;;;;;9.20;7.30;;;;;;;-4.52;100.00;101687.22;5030543;28;20057;-66
2023/11/20 02:46:12;;;;;;;11.53;9.37;;;;;;;-4.36;100.00;101688.47;5030861;28;20509;-65
2023/11/20 02:48:37;;;;;;;7.93;6.70;;;;;;;-4.25;100.00;101706.38;5030611;28;20033;-65
2023/11/20 02:51:04;;;;;;;12.17;7.47;;;;;;;-4.42;100.00;101689.50;5030567;28;20037;-66
2023/11/20 02:53:30;;;;;;;11.13;7.63;;;;;;;-4.41;100.00;101709.41;5030648;28;20037;-66
2023/11/20 02:55:56;;;;;;;11.63;8.40;;;;;;;-4.56;100.00;101675.22;5030495;28;20063;-66
2023/11/20 02:58:23;;;;;;;10.63;7.63;;;;;;;-4.41;100.00;101711.16;5030601;28;20040;-64
2023/11/20 03:00:49;;;;;;;11.40;7.15;;;;;;;-4.57;100.00;101687.38;5030494;28;20129;-66
2023/11/20 03:03:15;;;;;;;12.20;8.15;;;;;;;-4.57;100.00;101673.53;5033947;28;20417;-65
2023/11/20 03:05:44;;;;;;;11.98;8.35;;;;;;;-4.40;100.00;101687.72;5034206;28;20092;-66
2023/11/20 03:08:11;;;;;;;11.60;8.13;;;;;;;-4.62;100.00;101639.88;5034082;28;20398;-64
2023/11/20 03:10:37;;;;;;;12.27;8.50;;;;;;;-4.22;100.00;101706.28;5034053;28;20581;-66
2023/11/20 03:13:03;;;;;;;12.90;8.87;;;;;;;-4.24;100.00;101695.94;5033744;28;20132;-67
2023/11/20 03:15:28;;;;;;;12.07;8.23;;;;;;;-4.21;100.00;101692.38;5032623;28;20060;-65
2023/11/20 03:17:54;;;;;;;12.30;7.43;;;;;;;-4.15;100.00;101703.44;5034351;28;20037;-67
2023/11/20 03:20:20;;;;;;;14.53;9.63;;;;;;;-4.24;100.00;101690.72;5034461;28;20029;-65
2023/11/20 03:22:46;;;;;;;13.40;8.77;;;;;;;-4.38;100.00;101669.47;5033756;28;20061;-65
2023/11/20 03:25:12;;;;;;;13.03;9.53;;;;;;;-4.32;100.00;101699.66;5033608;28;20041;-67
2023/11/20 03:27:40;;;;;;;14.27;9.20;;;;;;;-4.44;100.00;101695.66;5033610;28;20848;-65
2023/11/20 03:30:06;;;;;;;12.60;9.25;;;;;;;-4.54;100.00;101678.63;5033763;28;20045;-65
2023/11/20 03:32:32;;;;;;;12.63;8.75;;;;;;;-4.52;100.00;101676.81;5033792;28;20043;-67
2023/11/20 03:34:58;;;;;;;12.85;9.10;;;;;;;-4.48;100.00;101684.50;5033700;28;20412;-65
2023/11/20 03:37:24;;;;;;;12.33;8.20;;;;;;;-4.39;100.00;101685.97;5033559;28;20037;-65
2023/11/20 03:39:49;;;;;;;12.03;8.53;;;;;;;-4.30;100.00;101708.28;5033414;28;20033;-67
2023/11/20 03:42:15;;;;;;;11.23;7.27;;;;;;;-4.42;100.00;101679.09;5033134;28;20042;-65
2023/11/20 03:44:40;;;;;;;13.10;7.70;;;;;;;-4.41;100.00;101696.41;5033392;28;20385;-67
2023/11/20 03:47:06;;;;;;;9.60;7.20;;;;;;;-4.45;100.00;101683.53;5033362;28;20041;-64
2023/11/20 03:49:32;;;;;;;11.45;7.78;;;;;;;-4.57;100.00;101670.91;5033278;28;20033;-64
2023/11/20 03:51:57;;;;;;;14.33;8.27;;;;;;;-4.63;100.00;101665.88;5032116;28;20045;-65
2023/11/20 03:54:23;;;;;;;15.20;8.10;;;;;;;-4.59;100.00;101686.56;5033037;28;20037;-65
2023/11/20 03:56:48;;;;;;;9.33;7.70;;;;;;;-4.85;100.00;101655.25;5033045;28;20041;-68
2023/11/20 03:59:15;;;;;;;10.43;8.20;;;;;;;-4.63;100.00;101684.06;5033267;28;20087;-65
2023/11/20 04:01:41;;;;;;;11.65;7.47;;;;;;;-4.64;100.00;101682.34;5033145;28;20106;-65
2023/11/20 04:04:08;;;;;;;12.40;8.50;;;;;;;-4.67;100.00;101668.56;5031717;28;20506;-65
2023/11/20 04:06:33;;;;;;;9.82;7.85;;;;;;;-4.87;100.00;101634.50;5031742;28;20068;-66
2023/11/20 04:08:59;;;;;;;11.03;9.03;;;;;;;-4.65;100.00;101670.25;5032999;28;20114;-64
2023/11/20 04:11:25;;;;;;;11.77;7.50;;;;;;;-4.97;100.00;101620.06;5035009;28;20025;-66
2023/11/20 04:13:51;;;;;;;13.37;7.70;;;;;;;-4.61;100.00;101677.97;5034014;28;20052;-66
2023/11/20 04:16:17;;;;;;;11.67;7.30;;;;;;;-4.80;100.00;101654.22;5033516;28;20037;-65
2023/11/20 04:18:45;;;;;;;12.88;8.35;;;;;;;-4.59;100.00;101670.97;5033524;28;20037;-66
2023/11/20 04:21:11;;;;;;;14.32;9.02;;;;;;;-4.60;100.00;101669.25;5032751;28;20056;-64
2023/11/20 04:23:37;;;;;;;12.23;8.70;;;;;;;-4.49;100.00;101680.19;5033140;28;20033;-66
2023/11/20 04:26:02;;;;;;;11.07;7.80;;;;;;;-4.45;100.00;101688.75;5034001;28;20667;-66
2023/11/20 04:28:35;;;;;;;10.40;7.40;;;;;;;-4.31;100.00;101698.75;5035904;28;20332;-65
2023/11/20 04:31:01;;;;;;;10.85;7.85;;;;;;;-4.41;100.00;101685.16;5041417;28;20068;-66
2023/11/20 04:33:27;;;;;;;11.70;7.60;;;;;;;-4.62;100.00;101645.06;5045439;28;20037;-65
2023/11/20 04:35:53;;;;;;;10.13;7.67;;;;;;;-4.35;100.00;101692.78;5042165;28;20034;-66
2023/11/20 04:38:19;;;;;;;13.00;7.83;;;;;;;-4.46;100.00;101676.66;5041590;28;20037;-65
2023/11/20 04:40:48;;;;;;;11.77;7.63;;;;;;;-4.45;100.00;101675.75;5036670;28;20044;-64
2023/11/20 04:43:15;;;;;;;13.13;9.20;;;;;;;-4.28;100.00;101699.53;5032867;28;20268;-68
2023/11/20 04:45:40;;;;;;;15.77;8.43;;;;;;;-4.29;100.00;101690.00;5031466;28;20038;-65
2023/11/20 04:48:08;;;;;;;15.23;9.57;;;;;;;-4.43;100.00;101673.94;5033087;28;20493;-67
2023/11/20 04:50:34;;;;;;;12.85;8.77;;;;;;;-4.27;100.00;101703.81;5032958;28;20033;-67
2023/11/20 04:53:00;;;;;;;16.13;10.17;;;;;;;-4.36;100.00;101686.72;5032278;28;20377;-64
2023/11/20 04:55:28;;;;;;;16.20;10.10;;;;;;;-4.19;100.00;101704.44;5032178;28;20033;-66
2023/11/20 04:57:53;;;;;;;14.07;9.48;;;;;;;-4.31;100.00;101678.81;5031266;28;20045;-67
2023/11/20 05:00:19;;;;;;;15.27;11.80;;;;;;;-4.16;100.00;101706.94;5031109;28;20079;-68
2023/11/20 05:02:45;;;;;;;13.47;9.73;;;;;;;-4.25;100.00;101686.41;5031999;28;20033;-65
2023/11/20 05:05:11;;;;;;;15.57;11.23;;;;;;;-4.20;100.00;101692.34;5033743;28;20029;-66
2023/11/20 05:07:36;;;;;;;13.43;10.13;;;;;;;-4.13;100.00;101704.25;5034247;28;20120;-68
2023/11/20 05:10:03;;;;;;;12.80;9.87;;;;;;;-4.09;100.00;101702.41;5031205;28;20041;-64
2023/11/20 05:12:29;;;;;;;14.98;9.32;;;;;;;-4.67;100.00;101613.97;5032341;28;20385;-67
2023/11/20 05:14:55;;;;;;;12.40;8.07;;;;;;;-4.36;100.00;101667.66;5032092;28;20124;-70
2023/11/20 05:17:20;;;;;;;13.60;9.10;;;;;;;-4.06;100.00;101713.56;5031961;28;20040;-66
2023/11/20 05:19:46;;;;;;;13.13;8.20;;;;;;;-4.00;100.00;101711.69;5030591;28;20029;-67
2023/11/20 05:22:12;;;;;;;14.27;9.07;;;;;;;-3.97;100.00;101711.59;5031640;28;20115;-66
2023/11/20 05:24:40;;;;;;;14.20;8.95;;;;;;;-4.15;100.00;101695.66;5031432;28;20108;-67
2023/11/20 05:27:10;;;;;;;16.42;9.38;;;;;;;-4.02;100.00;101716.09;5030404;28;20065;-68
2023/11/20 05:29:39;;;;;;;12.65;8.82;;;;;;;-4.31;100.00;101676.22;5029662;28;20735;-70
2023/11/20 05:32:05;;;;;;;13.60;9.07;;;;;;;-4.22;100.00;101701.09;5031404;28;20037;-69
2023/11/20 05:34:33;;;;;;;15.70;11.23;;;;;;;-4.26;100.00;101694.28;5031544;28;20045;-67
2023/11/20 05:37:02;;;;;;;19.80;13.13;;;;;;;-4.15;100.00;101719.06;5031703;28;20046;-65
2023/11/20 05:39:27;;;;;;;;;;;;;;;-4.12;100.00;101718.97;5032549;28;20037;-68
2023/11/20 05:41:53;;;;;;;13.57;12.13;;;;;;;-4.34;100.00;101702.28;5031647;28;19924;-68
2023/11/20 05:44:19;;;;;;;18.80;10.50;;;;;;;-4.26;100.00;101705.53;5030698;28;20049;-67
2023/11/20 05:46:45;;;;;;;15.93;10.07;;;;;;;-4.32;100.00;101700.50;5031572;28;20435;-67
2023/11/20 05:49:10;;;;;;;15.03;9.77;;;;;;;-4.22;100.00;101707.13;5031686;28;20045;-68
2023/11/20 05:51:36;;;;;;;15.73;9.77;;;;;;;-4.18;100.00;101716.53;5030892;28;20037;-70
2023/11/20 05:54:02;;;;;;;15.00;9.73;;;;;;;-4.30;100.00;101692.66;5032221;28;20468;-68
2023/11/20 05:56:30;;;;;;;49.40;30.70;;;;;;;-4.22;100.00;101701.09;5031822;28;20041;-69
2023/11/20 05:58:56;;;;;;;14.05;9.65;;;;;;;-4.07;100.00;101719.66;5031251;28;20033;-65
2023/11/20 06:01:22;;;;;;;13.43;9.63;;;;;;;-4.03;100.00;101701.38;5031068;28;20477;-66
2023/11/20 06:03:47;;;;;;;15.65;9.77;;;;;;;-3.89;100.00;101731.28;5030984;28;20033;-67
2023/11/20 06:06:23;;;;;;;15.37;10.23;;;;;;;-3.97;100.00;101712.47;5031144;28;20110;-67
2023/11/20 06:08:48;;;;;;;11.90;8.63;;;;;;;-4.02;100.00;101718.69;5031181;28;20037;-67
2023/11/20 06:11:21;;;;;;;12.77;8.40;;;;;;;-4.07;100.00;101706.66;5031093;28;20457;-68
2023/11/20 06:13:47;;;;;;;11.05;9.32;;;;;;;-4.06;100.00;101708.38;5030916;28;20030;-66
2023/11/20 06:16:16;;;;;;;13.90;9.60;;;;;;;-4.03;100.00;101710.03;5030767;28;20052;-67
2023/11/20 06:18:45;;;;;;;14.02;10.07;;;;;;;-3.84;100.00;101729.38;5032862;28;20037;-67
2023/11/20 06:21:10;;;;;;;16.30;11.73;;;;;;;-4.03;100.00;101719.59;5029677;28;20431;-66
2023/11/20 06:23:36;;;;;;;16.50;10.50;;;;;;;-4.05;100.00;101735.22;5030955;28;20044;-66
2023/11/20 06:26:02;;;;;;;13.70;9.80;;;;;;;-4.16;100.00;101722.56;5030682;28;20087;-69
2023/11/20 06:28:30;;;;;;;15.15;11.48;;;;;;;-4.14;100.00;101725.09;5029865;28;20408;-66
2023/11/20 06:30:56;;;;;;;16.77;10.85;;;;;;;-4.25;100.00;101715.03;5030716;28;20041;-66
2023/11/20 06:33:21;;;;;;;16.37;10.67;;;;;;;-4.25;100.00;101730.63;5031212;28;20485;-66
2023/11/20 06:35:47;;;;;;;14.63;9.93;;;;;;;-4.29;100.00;101720.38;5031168;28;20132;-66
2023/11/20 06:38:13;;;;;;;14.57;10.43;;;;;;;-4.47;100.00;101698.34;5035896;28;20037;-67
2023/11/20 06:40:39;;;;;;;17.63;10.73;;;;;;;-4.57;100.00;101696.91;5035234;28;20483;-68
2023/11/20 06:43:06;;;;;;;19.92;12.80;;;;;;;-4.50;100.00;101719.22;5033145;28;20052;-65
2023/11/20 06:45:32;;;;;;;15.93;10.95;;;;;;;-4.43;100.00;101744.16;5034683;28;20338;-65
2023/11/20 06:47:57;;;;;;;18.83;12.67;;;;;;;-4.36;100.00;101743.94;5034904;28;20048;-67
2023/11/20 06:50:27;;;;;;;17.83;12.70;;;;;;;-4.51;100.00;101715.78;5034450;28;20061;-65
2023/11/20 06:52:53;;;;;;;20.05;11.23;;;;;;;-4.37;100.00;101715.38;5034730;28;20045;-66
2023/11/20 06:55:18;;;;;;;16.65;11.63;;;;;;;-4.22;100.00;101729.69;5017004;28;20381;-66
2023/11/20 06:57:44;;;;;;;16.50;10.83;;;;;;;-4.20;100.00;101727.91;5033333;28;20068;-67
2023/11/20 07:00:12;;;;;;;17.87;10.43;;;;;;;-4.15;100.00;101732.06;5034258;28;20037;-65
2023/11/20 07:02:38;;;;;;;21.42;11.65;;;;;;;-4.31;100.00;101722.16;5034474;28;20041;-68
2023/11/20 07:05:04;;;;;;;18.42;10.82;;;;;;;-4.20;100.00;101741.75;5034367;28;20435;-68
2023/11/20 07:07:30;;;;;;;15.95;11.30;;;;;;;-4.31;100.00;101732.56;5032871;28;20168;-66
2023/11/20 07:09:56;;;;;;;14.17;10.07;;;;;;;-4.11;100.00;101764.88;5034689;28;20124;-66
2023/11/20 07:12:21;;;;;;;17.30;10.97;;;;;;;-4.34;100.00;101723.09;5031034;28;20449;-65
2023/11/20 07:14:47;;;;;;;13.33;9.73;;;;;;;-4.13;100.00;101745.88;5024983;28;20101;-66
2023/11/20 07:17:14;;;;;;;14.50;11.17;;;;;;;-4.12;100.00;101744.97;5025400;28;20045;-71
2023/11/20 07:19:42;;;;;;;15.88;9.50;;;;;;;-3.96;100.00;101765.34;5024342;28;20049;-70
2023/11/20 07:22:08;;;;;;;17.10;11.15;;;;;;;-3.97;100.00;101737.63;5022624;28;20515;-67
2023/11/20 07:24:33;;;;;;;31.97;13.93;;;;;;;-3.86;100.00;101757.22;5023046;28;20132;-68
2023/11/20 07:27:03;;;;;;;16.73;11.50;;;;;;;-3.84;100.00;101762.38;5022785;28;20509;-66
2023/11/20 07:29:29;;;;;;;14.60;9.80;;;;;;;-3.82;100.00;101756.22;5015646;28;20057;-65
2023/11/20 07:31:54;;;;;;;23.23;13.17;;;;;;;-3.73;100.00;101768.13;5014312;28;20466;-66
2023/11/20 07:34:21;;;;;;;17.37;11.67;;;;;;;-3.86;100.00;101741.59;5013074;28;20041;-66
2023/11/20 07:36:46;;;;;;;19.83;13.13;;;;;;;-3.85;100.00;101763.25;5014159;28;20038;-69
2023/11/20 07:39:12;;;;;;;15.43;10.70;;;;;;;-3.82;100.00;101765.78;5012732;28;20034;-67
2023/11/20 07:41:38;;;;;;;20.88;10.98;;;;;;;-3.78;100.00;101743.94;5013748;28;20049;-66
2023/11/20 07:44:04;;;;;;;17.23;11.10;;;;;;;-3.68;100.00;101765.38;5013876;28;20760;-66
2023/11/20 07:46:30;;;;;;;14.63;10.93;;;;;;;-3.62;100.00;101762.56;5013936;28;20063;-67
2023/11/20 07:48:56;;;;;;;13.20;10.48;;;;;;;-3.73;100.00;101752.50;5013662;28;20033;-66
2023/11/20 07:51:31;;;;;;;17.83;12.43;;;;;;;-3.64;100.00;101759.16;5014397;28;20042;-72
2023/11/20 07:53:56;;;;;;;19.05;13.02;;;;;;;-3.64;100.00;101765.22;5014299;28;20516;-68
2023/11/20 07:56:22;;;;;;;21.87;14.70;;;;;;;-3.83;100.00;101751.06;5014190;28;20044;-66
2023/11/20 07:58:47;;;;;;;25.20;14.27;;;;;;;-3.80;100.00;101766.56;5013536;28;20030;-66
2023/11/20 08:01:13;;;;;;;19.17;13.07;;;;;;;-3.84;100.00;101762.38;5012951;28;20084;-67
2023/11/20 08:03:38;;;;;;;20.17;13.80;;;;;;;-3.94;100.00;101745.34;5012652;28;20037;-69
2023/11/20 08:06:05;;;;;;;21.17;15.00;;;;;;;-3.96;100.00;101740.19;5013088;28;20041;-69
2023/11/20 08:08:31;;;;;;;18.20;12.18;;;;;;;-3.79;100.00;101763.06;5013431;28;20038;-68
2023/11/20 08:10:57;;;;;;;35.00;17.10;;;;;;;-3.71;100.00;101768.91;5013334;28;20038;-67
2023/11/20 08:13:22;;;;;;;17.90;12.17;;;;;;;-3.74;100.00;101771.63;5013419;28;20042;-68
2023/11/20 08:15:48;;;;;;;20.00;12.43;;;;;;;-4.08;100.00;101736.19;5025207;28;20129;-70
2023/11/20 08:18:13;;;;;;;17.30;11.33;;;;;;;-3.91;100.00;101771.25;5032392;28;20049;-69
2023/11/20 08:20:39;;;;;;;17.23;11.93;;;;;;;-4.03;100.00;101758.63;5033080;28;20131;-70
2023/11/20 08:23:05;;;;;;;18.00;13.13;;;;;;;-3.95;100.00;101756.66;5033164;28;20041;-70
2023/11/20 08:25:30;;;;;;;20.23;13.20;;;;;;;-3.99;100.00;101762.84;5032747;28;20045;-67
2023/11/20 08:27:56;;;;;;;18.77;12.43;;;;;;;-3.99;100.00;101776.69;5032893;28;20573;-71
2023/11/20 08:30:22;;;;;;;18.33;11.83;;;;;;;-4.13;100.00;101753.69;5031659;28;20099;-68
2023/11/20 08:32:47;;;;;;;18.00;12.30;;;;;;;-4.07;100.00;101773.44;5032771;28;20025;-67
2023/11/20 08:35:13;;;;;;;20.13;13.50;;;;;;;-4.19;100.00;101759.06;5032689;28;20108;-66
2023/11/20 08:37:39;;;;;;;21.25;12.43;;;;;;;-4.01;100.00;101788.06;5032381;28;20049;-65
2023/11/20 08:40:08;;;;;;;19.07;13.53;;;;;;;-4.09;100.00;101772.66;5032305;28;20037;-64
2023/11/20 08:42:34;;;;;;;20.10;12.98;;;;;;;-3.97;100.00;101789.66;5031312;28;20950;-66
2023/11/20 08:45:00;;;;;;;19.37;12.13;;;;;;;-4.08;100.00;101756.13;5032595;28;20033;-67
2023/11/20 08:47:25;;;;;;;21.00;14.70;;;;;;;-4.04;100.00;101781.19;5032394;28;20038;-64
2023/11/20 08:49:53;;;;;;;19.17;12.60;;;;;;;-4.17;100.00;101762.47;5033348;28;20535;-64
2023/11/20 08:52:19;;;;;;;17.27;12.80;;;;;;;-4.01;100.00;101778.50;5032511;28;20053;-67
2023/11/20 08:54:45;;;;;;;17.27;12.48;;;;;;;-4.08;100.00;101772.59;5030894;28;20037;-66
2023/11/20 08:57:10;;;;;;;20.40;14.10;;;;;;;-4.15;100.00;101758.06;5031141;28;20048;-67
2023/11/20 08:59:36;;;;;;;19.80;15.10;;;;;;;-4.21;100.00;101753.06;5030893;28;20033;-67
2023/11/20 09:02:01;;;;;;;23.97;15.30;;;;;;;-4.25;100.00;101754.03;5031307;28;20033;-65
2023/11/20 09:04:27;;;;;;;19.33;14.37;;;;;;;-4.19;100.00;101753.88;5032679;28;20029;-65
2023/11/20 09:06:53;;;;;;;22.93;15.63;;;;;;;-4.16;100.00;101758.13;5032346;28;20049;-65
2023/11/20 09:09:18;;;;;;;24.73;14.60;;;;;;;-4.23;100.00;101736.66;5032260;28;20044;-65
2023/11/20 09:11:45;;;;;;;22.03;14.73;;;;;;;-4.01;100.00;101741.22;5032699;28;20140;-66
2023/11/20 09:14:12;;;;;;;20.13;13.63;;;;;;;-3.84;100.00;101771.03;5032748;28;20034;-67
2023/11/20 09:16:38;;;;;;;26.30;14.35;;;;;;;-4.06;100.00;101729.16;5032593;28;20037;-67
2023/11/20 09:19:04;;;;;;;19.98;13.38;;;;;;;-4.21;100.00;101719.25;5032402;28;20381;-67
2023/11/20 09:21:29;;;;;;;20.33;13.67;;;;;;;-4.01;100.00;101765.50;5032093;28;20047;-67
2023/11/20 09:23:55;;;;;;;23.90;15.93;;;;;;;-4.06;100.00;101765.59;5031770;28;20145;-65
2023/11/20 09:26:23;;;;;;;23.53;16.47;;;;;;;-3.97;100.00;101755.84;5031772;28;20034;-66
2023/11/20 09:28:50;;;;;;;28.00;17.45;;;;;;;-3.96;100.00;101755.78;5031873;28;20049;-67
2023/11/20 09:31:17;;;;;;;24.33;14.00;;;;;;;-3.86;100.00;101772.81;5031954;28;20039;-65
2023/11/20 09:33:43;;;;;;;23.90;15.43;;;;;;;-3.71;100.00;101755.91;5032630;28;20107;-67
2023/11/20 09:36:12;;;;;;;21.43;15.20;;;;;;;-3.64;100.00;101754.81;5032489;28;20041;-65
2023/11/20 09:38:38;;;;;;;23.75;14.77;;;;;;;-3.66;100.00;101759.22;5032375;28;20272;-67
2023/11/20 09:41:04;;;;;;;24.80;15.27;;;;;;;-3.75;100.00;101757.75;5032682;28;20103;-65
2023/11/20 09:43:31;;;;;;;23.97;15.30;;;;;;;-3.84;100.00;101744.16;5031801;28;20029;-67
2023/11/20 09:46:00;;;;;;;24.30;15.80;;;;;;;-3.85;100.00;101752.84;5032047;28;20041;-67
2023/11/20 09:48:32;;;;;;;23.33;15.60;;;;;;;-3.93;100.00;101744.44;5030376;28;20033;-64
2023/11/20 09:50:58;;;;;;;24.38;14.93;;;;;;;-3.93;100.00;101760.06;5034199;28;20040;-62
2023/11/20 09:53:32;;;;;;;21.27;14.27;;;;;;;-4.00;100.00;101737.72;5033125;28;20085;-66
2023/11/20 09:55:57;;;;;;;26.75;16.23;;;;;;;-3.97;100.00;101737.63;5032658;28;20048;-67
2023/11/20 09:58:23;;;;;;;20.23;15.53;;;;;;;-4.18;100.00;101726.09;5032637;28;20037;-70
2023/11/20 10:00:56;;;;;;;18.83;13.80;;;;;;;-4.21;100.00;101726.19;5032439;28;20099;-69
2023/11/20 10:03:23;;;;;;;20.63;14.15;;;;;;;-3.87;100.00;101759.84;5032963;28;20042;-72
2023/11/20 10:05:50;;;;;;;17.15;12.88;;;;;;;-3.91;100.00;101747.84;5033537;28;20382;-67
2023/11/20 10:08:18;;;;;;;18.88;13.38;;;;;;;-4.22;100.00;101691.53;5032893;28;20025;-66
2023/11/20 10:10:48;;;;;;;20.00;12.80;;;;;;;-3.82;100.00;101757.97;5032340;28;20036;-65
2023/11/20 10:13:15;;;;;;;19.00;13.70;;;;;;;-3.83;100.00;101754.50;5036659;28;20044;-65
2023/11/20 10:15:40;;;;;;;35.40;20.30;;;;;;;-3.83;100.00;101753.66;5037627;28;20048;-67
2023/11/20 10:18:06;;;;;;;21.53;13.40;;;;;;;-3.90;100.00;101728.72;5034276;28;20034;-66
2023/11/20 10:20:48;;;;;;;17.07;12.73;;;;;;;-3.76;100.00;101744.75;5034101;28;20099;-70
2023/11/20 10:23:15;;;;;;;21.73;12.65;;;;;;;-3.84;100.00;101738.94;5028128;28;20124;-69
2023/11/20 10:25:45;;;;;;;19.00;11.60;;;;;;;-3.88;100.00;101743.38;5035412;28;20064;-66
2023/11/20 10:28:14;;;;;;;20.17;13.07;;;;;;;-4.06;100.00;101723.13;5033850;28;20061;-66
2023/11/20 10:30:49;;;;;;;19.85;13.13;;;;;;;-3.89;100.00;101748.66;5035093;28;20061;-65
2023/11/20 10:33:19;;;;;;;24.10;13.57;;;;;;;-4.11;100.00;101718.06;5035006;28;20056;-65
2023/11/20 10:35:46;;;;;;;22.05;13.95;;;;;;;-3.92;100.00;101740.94;5034123;28;20037;-70
2023/11/20 10:38:12;;;;;;;17.98;12.70;;;;;;;-3.96;100.00;101713.31;5034875;28;20048;-64
2023/11/20 10:40:44;;;;;;;22.03;13.87;;;;;;;-3.91;100.00;101699.25;5034815;28;20033;-66
2023/11/20 10:43:10;;;;;;;18.58;13.57;;;;;;;-4.23;100.00;101604.00;5034870;28;20081;-66
2023/11/20 10:45:39;;;;;;;21.42;14.73;;;;;;;-3.17;100.00;101760.25;5035423;28;20033;-64
2023/11/20 10:48:08;;;;;;;;;;;;;;;-3.01;100.00;101745.78;5035393;28;20048;-66
2023/11/20 10:50:35;;;;;;;25.58;14.45;;;;;;;-3.18;100.00;101735.94;5035602;28;19924;-67
2023/11/20 10:53:06;;;;;;;18.05;13.45;;;;;;;-3.16;100.00;101735.91;5036299;28;20493;-63
2023/11/20 10:55:43;;;;;;;21.08;13.43;;;;;;;-3.28;100.00;101728.47;5036510;28;20081;-64
2023/11/20 10:58:11;;;;;;;22.27;14.40;;;;;;;-3.33;100.00;101752.06;5035299;28;20029;-66
2023/11/20 11:00:39;;;;;;;25.98;16.23;;;;;;;-3.37;100.00;101744.41;5034850;28;20029;-66
2023/11/20 11:03:07;;;;;;;17.83;13.98;;;;;;;-3.24;100.00;101750.91;5034477;28;20041;-67
2023/11/20 11:05:37;;;;;;;20.38;15.05;;;;;;;-3.57;100.00;101717.25;5034359;28;20037;-63